createdAt,value
2022-12-04T00:01:34.803Z,9.81
2022-12-04T00:06:39.063Z,9.74
2022-12-04T00:11:48.739Z,9.73
2022-12-04T00:16:55.915Z,9.75
2022-12-04T00:22:03.146Z,9.89
2022-12-04T00:27:15.631Z,9.98
2022-12-04T00:32:19.274Z,10.07
2022-12-04T00:37:27.862Z,10.13
2022-12-04T00:42:46.227Z,10.16
2022-12-04T00:47:51.716Z,10.18
2022-12-04T00:52:57.336Z,10.19
2022-12-04T00:58:04.925Z,10.20
2022-12-04T01:03:12.301Z,10.18
2022-12-04T01:08:22.658Z,10.16
2022-12-04T01:13:49.874Z,10.13
2022-12-04T01:18:53.522Z,10.06
2022-12-04T01:24:07.234Z,10.05
2022-12-04T01:29:11.882Z,10.06
2022-12-04T01:34:15.706Z,10.08
2022-12-04T01:39:21.015Z,10.09
2022-12-04T01:44:30.248Z,10.13
2022-12-04T01:49:56.229Z,10.13
2022-12-04T01:55:03.768Z,10.10
2022-12-04T02:05:25.321Z,10.10
2022-12-04T02:11:13.235Z,10.08
2022-12-04T02:17:09.282Z,10.06
2022-12-04T02:22:38.864Z,10.03
2022-12-04T02:28:19.679Z,9.96
2022-12-04T02:33:46.798Z,9.93
2022-12-04T02:39:15.874Z,9.89
2022-12-04T02:44:31.683Z,9.85
2022-12-04T02:49:54.453Z,9.84
2022-12-04T02:55:30.433Z,9.81
2022-12-04T03:00:41.398Z,9.78
2022-12-04T03:05:58.142Z,9.76
2022-12-04T03:11:06.010Z,9.75
2022-12-04T03:16:19.868Z,9.75
2022-12-04T03:21:36.900Z,9.74
2022-12-04T03:26:49.715Z,9.76
2022-12-04T03:32:21.712Z,9.74
2022-12-04T03:37:48.737Z,9.68
2022-12-04T03:43:32.349Z,9.65
2022-12-04T03:49:15.520Z,9.66
2022-12-04T03:54:43.799Z,9.65
2022-12-04T04:00:09.136Z,9.65
2022-12-04T04:05:20.032Z,9.66
2022-12-04T04:10:29.988Z,9.67
2022-12-04T04:16:05.511Z,9.67
2022-12-04T04:21:31.597Z,9.68
2022-12-04T04:26:42.696Z,9.70
2022-12-04T04:32:09.271Z,9.69
2022-12-04T04:37:54.506Z,9.67
2022-12-04T04:43:57.064Z,9.64
2022-12-04T04:49:05.075Z,9.58
2022-12-04T04:54:14.947Z,9.58
2022-12-04T04:59:22.911Z,9.56
2022-12-04T05:04:35.933Z,9.54
2022-12-04T05:13:24.573Z,9.53
2022-12-04T05:18:28.639Z,9.55
2022-12-04T05:23:34.842Z,9.57
2022-12-04T05:28:36.816Z,9.54
2022-12-04T05:33:42.256Z,9.56
2022-12-04T05:38:46.970Z,9.57
2022-12-04T05:43:53.801Z,9.54
2022-12-04T05:48:56.744Z,9.51
2022-12-04T06:21:59.880Z,9.45
2022-12-04T06:32:39.560Z,9.39
2022-12-04T06:37:50.342Z,9.35
2022-12-04T06:42:58.829Z,9.33
2022-12-04T06:48:04.355Z,9.32
2022-12-04T06:53:19.546Z,9.27
2022-12-04T06:58:26.500Z,9.23
2022-12-04T07:03:36.978Z,9.19
2022-12-04T07:08:56.385Z,9.16
2022-12-04T07:14:16.369Z,9.13
2022-12-04T07:19:29.191Z,9.12
2022-12-04T07:24:40.549Z,9.14
2022-12-04T07:29:58.651Z,9.20
2022-12-04T07:40:29.121Z,9.29
2022-12-04T07:45:45.581Z,9.29
2022-12-04T07:51:14.625Z,9.31
2022-12-04T07:56:38.100Z,9.36
2022-12-04T08:07:17.768Z,9.52
2022-12-04T08:12:44.695Z,9.87
2022-12-04T08:18:00.611Z,9.78
2022-12-04T08:23:13.846Z,9.72
2022-12-04T08:28:28.173Z,9.68
2022-12-04T08:33:36.577Z,9.72
2022-12-04T08:38:44.236Z,9.75
2022-12-04T08:43:58.923Z,9.77
2022-12-04T08:49:17.976Z,9.78
2022-12-04T08:54:25.295Z,9.82
2022-12-04T08:59:40.219Z,9.83
2022-12-04T09:04:48.184Z,9.86
2022-12-04T09:10:01.065Z,9.87
2022-12-04T09:15:11.954Z,9.91
2022-12-04T09:20:44.452Z,10.02
2022-12-04T09:31:33.737Z,10.36
2022-12-04T09:42:33.670Z,10.35
2022-12-04T09:47:57.706Z,10.35
2022-12-04T09:53:24.631Z,10.40
2022-12-04T09:59:07.534Z,10.47
2022-12-04T10:04:39.661Z,10.58
2022-12-04T10:10:22.309Z,10.73
2022-12-04T10:16:08.926Z,11.01
2022-12-04T10:21:37.228Z,11.39
2022-12-04T10:26:46.278Z,11.56
2022-12-04T10:31:58.301Z,11.56
2022-12-04T10:37:21.820Z,11.57
2022-12-04T10:42:47.869Z,11.54
2022-12-04T10:48:00.032Z,11.49
2022-12-04T10:53:22.620Z,11.45
2022-12-04T10:58:36.517Z,11.41
2022-12-04T11:03:46.685Z,11.37
2022-12-04T11:08:56.089Z,11.29
2022-12-04T11:14:20.279Z,11.22
2022-12-04T11:19:30.942Z,11.18
2022-12-04T11:24:41.142Z,11.18
2022-12-04T11:29:50.432Z,11.20
2022-12-04T11:35:23.661Z,11.18
2022-12-04T11:40:47.026Z,11.18
2022-12-04T11:46:02.002Z,11.17
2022-12-04T11:51:36.556Z,11.17
2022-12-04T11:56:49.561Z,11.19
2022-12-04T12:02:24.007Z,11.20
2022-12-04T12:08:01.945Z,11.21
2022-12-04T12:13:39.834Z,11.17
2022-12-04T12:19:29.304Z,11.22
2022-12-04T12:24:51.554Z,11.34
2022-12-04T12:30:29.755Z,11.45
2022-12-04T12:35:56.615Z,11.73
2022-12-04T12:41:26.031Z,12.60
2022-12-04T12:46:53.504Z,13.20
2022-12-04T12:52:27.323Z,13.54
2022-12-04T12:57:53.901Z,13.48
2022-12-04T13:03:36.552Z,13.38
2022-12-04T13:09:37.030Z,13.59
2022-12-04T13:20:52.769Z,13.46
2022-12-04T13:26:37.958Z,13.22
2022-12-04T13:38:00.549Z,12.97
2022-12-04T13:43:33.751Z,12.89
2022-12-04T13:48:49.254Z,12.85
2022-12-04T13:59:49.732Z,12.83
2022-12-04T14:05:19.107Z,12.80
2022-12-04T14:10:47.694Z,12.83
2022-12-04T14:16:26.404Z,12.97
2022-12-04T14:21:49.101Z,13.04
2022-12-04T14:27:31.058Z,13.33
2022-12-04T14:32:37.497Z,13.46
2022-12-04T14:38:07.987Z,13.35
2022-12-04T14:43:30.792Z,13.45
2022-12-04T14:48:56.516Z,13.47
2022-12-04T14:54:26.500Z,13.41
2022-12-04T14:59:55.556Z,13.34
2022-12-04T15:05:04.026Z,13.35
2022-12-04T15:10:45.070Z,13.23
2022-12-04T15:15:55.042Z,13.06
2022-12-04T15:21:15.985Z,13.03
2022-12-04T15:26:29.437Z,13.02
2022-12-04T15:31:51.633Z,12.92
2022-12-04T15:37:23.881Z,12.87
2022-12-04T15:42:37.958Z,12.81
2022-12-04T15:48:11.989Z,12.73
2022-12-04T15:53:29.731Z,12.62
2022-12-04T15:58:43.234Z,12.49
2022-12-04T16:04:01.587Z,12.34
2022-12-04T16:09:26.844Z,12.12
2022-12-04T16:20:11.386Z,11.76
2022-12-04T16:25:24.185Z,11.63
2022-12-04T16:30:40.349Z,11.48
2022-12-04T16:35:58.626Z,11.37
2022-12-04T16:41:18.872Z,11.27
2022-12-04T16:46:25.454Z,11.18
2022-12-04T16:51:50.962Z,11.09
2022-12-04T16:57:04.726Z,11.00
2022-12-04T17:02:30.011Z,11.01
2022-12-04T17:07:42.094Z,11.13
2022-12-04T17:12:57.964Z,11.25
2022-12-04T17:18:16.361Z,11.33
2022-12-04T17:23:30.086Z,11.39
2022-12-04T17:28:37.521Z,11.27
2022-12-04T17:33:40.087Z,11.04
2022-12-04T17:38:43.397Z,10.76
2022-12-04T17:43:49.060Z,10.59
2022-12-04T17:49:06.668Z,10.47
2022-12-04T17:54:20.125Z,10.38
2022-12-04T17:59:36.605Z,10.50
2022-12-04T18:04:51.313Z,10.65
2022-12-04T18:09:59.735Z,10.79
2022-12-04T18:15:21.405Z,10.87
2022-12-04T18:20:50.476Z,10.88
2022-12-04T18:26:18.519Z,10.91
2022-12-04T18:31:32.573Z,10.89
2022-12-04T18:36:39.887Z,10.87
2022-12-04T18:41:47.426Z,10.87
2022-12-04T18:52:18.565Z,10.89
2022-12-04T18:57:32.158Z,10.89
2022-12-04T19:08:47.753Z,10.88
2022-12-04T19:14:16.148Z,10.85
2022-12-04T19:19:35.959Z,10.32
2022-12-04T19:24:56.687Z,10.17
2022-12-04T19:30:08.435Z,10.07
2022-12-04T19:35:17.391Z,10.18
2022-12-04T19:40:23.560Z,10.29
2022-12-04T19:45:36.284Z,10.35
2022-12-04T19:50:50.209Z,10.39
2022-12-04T19:56:01.986Z,10.38
2022-12-04T20:01:17.646Z,10.39
2022-12-04T20:06:36.554Z,10.36
2022-12-04T20:11:49.337Z,10.27
2022-12-04T20:17:11.344Z,9.70
2022-12-04T20:22:37.088Z,9.41
2022-12-04T20:27:49.996Z,9.23
2022-12-04T20:33:32.906Z,9.16
2022-12-04T20:38:41.102Z,9.05
2022-12-04T20:44:12.159Z,8.87
2022-12-04T20:49:30.850Z,8.89
2022-12-04T20:54:47.663Z,8.84
2022-12-04T21:00:15.597Z,8.81
2022-12-04T21:05:30.375Z,8.76
2022-12-04T21:10:42.094Z,8.72
2022-12-04T21:16:03.725Z,8.74
2022-12-04T21:21:09.617Z,8.78
2022-12-04T21:26:35.575Z,8.84
2022-12-04T21:31:49.595Z,8.86
2022-12-04T21:37:18.623Z,8.81
2022-12-04T21:42:33.438Z,8.77
2022-12-04T21:47:38.658Z,8.69
2022-12-04T21:52:56.807Z,8.67
2022-12-04T21:58:16.656Z,8.60
2022-12-04T22:03:28.835Z,8.60
2022-12-04T22:08:55.018Z,8.61
2022-12-04T22:14:10.916Z,8.59
2022-12-04T22:19:19.068Z,8.61
2022-12-04T22:24:24.012Z,8.55
2022-12-04T22:29:49.749Z,8.55
2022-12-04T22:35:05.213Z,8.51
2022-12-04T22:40:28.855Z,8.66
2022-12-04T22:45:34.581Z,8.86
2022-12-04T22:50:44.028Z,9.06
2022-12-04T23:01:24.041Z,9.28
2022-12-04T23:06:39.643Z,9.35
2022-12-04T23:11:46.087Z,9.42
2022-12-04T23:16:51.697Z,9.51
2022-12-04T23:22:07.424Z,9.53
2022-12-04T23:27:17.774Z,9.51
2022-12-04T23:32:41.679Z,9.49
2022-12-04T23:37:51.077Z,9.45
2022-12-04T23:42:56.522Z,9.41
2022-12-04T23:48:03.065Z,9.38
2022-12-04T23:53:12.909Z,9.33
2022-12-04T23:58:31.672Z,9.31
